Wetterdaten: Woche 31.08.15 - 06.09.15 (KW36)
Datum Zeit Temp. I. Temp. A. Feuchte I. Feuchte A. Luftdruck Regen Wind Richtung Taupunkt Windchill
31.08.2015 00:00 24,8 °C 20,7 °C 65 % 86 % 1014,5 hPa 0,0 l/m² 0,7 km/h (0 Bft) NO 18,2 °C 20,7 °C
31.08.2015 01:00 24,6 °C 19,8 °C 65 % 87 % 1014,5 hPa 0,0 l/m² 0,1 km/h (0 Bft) W 17,6 °C 19,8 °C
31.08.2015 02:00 24,4 °C 18,8 °C 65 % 88 % 1014,1 hPa 0,0 l/m² 0,1 km/h (0 Bft) W 16,7 °C 18,8 °C
31.08.2015 03:00 24,4 °C 18,3 °C 65 % 90 % 1013,8 hPa 0,0 l/m² 1,1 km/h (1 Bft) O-NO 16,5 °C 18,2 °C
31.08.2015 04:00 24,3 °C 17,7 °C 65 % 89 % 1013,5 hPa 0,0 l/m² 0,0 km/h (0 Bft) O-NO 15,9 °C 17,7 °C
31.08.2015 05:00 24,3 °C 17,1 °C 65 % 90 % 1013,4 hPa 0,0 l/m² 0,0 km/h (0 Bft) O-NO 15,5 °C 17,1 °C
31.08.2015 06:00 24,2 °C 16,7 °C 64 % 90 % 1013,5 hPa 0,0 l/m² 0,0 km/h (0 Bft) O-NO 15,1 °C 16,7 °C
31.08.2015 07:00 24,2 °C 16,7 °C 64 % 91 % 1013,7 hPa 0,0 l/m² 0,0 km/h (0 Bft) O-NO 15,3 °C 16,7 °C
31.08.2015 08:00 24,1 °C 19,4 °C 64 % 92 % 1013,2 hPa 0,0 l/m² 2,8 km/h (1 Bft) W 18,1 °C 19,4 °C
31.08.2015 09:00 24,1 °C 23,6 °C 66 % 88 % 1012,8 hPa 0,0 l/m² 2,0 km/h (1 Bft) S-SO 21,4 °C 23,6 °C
31.08.2015 10:00 24,1 °C 27,0 °C 66 % 78 % 1012,7 hPa 0,0 l/m² 3,2 km/h (1 Bft) O-NO 22,8 °C 27,0 °C
31.08.2015 11:00 24,2 °C 28,5 °C 65 % 71 % 1012,4 hPa 0,0 l/m² 7,0 km/h (2 Bft) O-NO 22,7 °C 28,4 °C
31.08.2015 12:00 24,4 °C 29,8 °C 66 % 66 % 1011,7 hPa 0,0 l/m² 3,0 km/h (1 Bft) O-SO 22,7 °C 29,8 °C
31.08.2015 13:00 24,6 °C 31,2 °C 68 % 60 % 1011,3 hPa 0,0 l/m² 2,0 km/h (1 Bft) O-NO 22,5 °C 31,2 °C
31.08.2015 14:00 24,8 °C 32,1 °C 67 % 56 % 1010,4 hPa 0,0 l/m² 3,2 km/h (1 Bft) O-NO 22,3 °C 32,1 °C
31.08.2015 15:00 24,8 °C 32,7 °C 66 % 54 % 1009,7 hPa 0,0 l/m² 4,1 km/h (1 Bft) O-SO 22,2 °C 32,7 °C
31.08.2015 16:00 24,8 °C 33,1 °C 66 % 51 % 1009,1 hPa 0,0 l/m² 2,8 km/h (1 Bft) SO 21,5 °C 33,1 °C
31.08.2015 17:00 24,9 °C 32,9 °C 66 % 52 % 1008,3 hPa 0,0 l/m² 5,7 km/h (2 Bft) O 21,9 °C 32,9 °C
31.08.2015 18:00 24,9 °C 31,3 °C 66 % 56 % 1007,8 hPa 0,0 l/m² 2,9 km/h (1 Bft) O 21,3 °C 31,3 °C
31.08.2015 19:00 24,9 °C 28,7 °C 66 % 67 % 1007,8 hPa 0,5 l/m² 3,8 km/h (1 Bft) N 21,9 °C 28,6 °C
31.08.2015 20:00 25,1 °C 26,0 °C 67 % 76 % 1007,6 hPa 0,0 l/m² 1,0 km/h (0 Bft) N 21,4 °C 26,0 °C
31.08.2015 21:00 25,5 °C 24,1 °C 69 % 81 % 1007,7 hPa 0,0 l/m² 1,0 km/h (0 Bft) W-NW 20,6 °C 24,1 °C
31.08.2015 22:00 25,7 °C 22,9 °C 69 % 84 % 1007,7 hPa 0,0 l/m² 0,3 km/h (0 Bft) W-NW 20,0 °C 22,9 °C
31.08.2015 23:00 25,7 °C 21,7 °C 68 % 85 % 1007,5 hPa 0,0 l/m² 0,0 km/h (0 Bft) W-NW 19,1 °C 21,7 °C
01.09.2015 00:00 25,4 °C 20,5 °C 68 % 87 % 1007,3 hPa 0,0 l/m² 0,6 km/h (0 Bft) W-NW 18,4 °C 20,5 °C
01.09.2015 01:00 25,2 °C 19,8 °C 67 % 89 % 1007,0 hPa 0,0 l/m² 0,2 km/h (0 Bft) NW 17,8 °C 19,8 °C
01.09.2015 02:00 25,1 °C 18,9 °C 67 % 89 % 1006,8 hPa 0,0 l/m² 0,5 km/h (0 Bft) NW 17,0 °C 18,9 °C
01.09.2015 03:00 25,0 °C 18,3 °C 67 % 90 % 1007,0 hPa 0,0 l/m² 0,9 km/h (0 Bft) N-NW 16,6 °C 18,3 °C
01.09.2015 04:00 25,0 °C 17,6 °C 66 % 89 % 1007,4 hPa 0,0 l/m² 1,7 km/h (1 Bft) SW 15,9 °C 17,6 °C
01.09.2015 05:00 24,9 °C 17,2 °C 66 % 90 % 1007,4 hPa 0,0 l/m² 0,1 km/h (0 Bft) SW 15,5 °C 17,2 °C
01.09.2015 06:00 24,8 °C 16,9 °C 65 % 91 % 1007,4 hPa 0,0 l/m² 0,9 km/h (0 Bft) SW 15,4 °C 16,9 °C
01.09.2015 07:00 24,6 °C 17,4 °C 64 % 92 % 1007,8 hPa 0,0 l/m² 0,3 km/h (0 Bft) O-NO 16,0 °C 17,4 °C
01.09.2015 08:00 24,6 °C 20,1 °C 65 % 89 % 1007,9 hPa 0,0 l/m² 0,5 km/h (0 Bft) O-NO 18,2 °C 20,1 °C
01.09.2015 09:00 24,8 °C 23,3 °C 65 % 81 % 1007,8 hPa 0,0 l/m² 4,0 km/h (1 Bft) O-SO 19,8 °C 23,1 °C
01.09.2015 10:00 24,9 °C 25,2 °C 65 % 74 % 1007,9 hPa 0,0 l/m² 7,0 km/h (2 Bft) W-SW 20,1 °C 24,8 °C
01.09.2015 11:00 25,4 °C 25,9 °C 65 % 70 % 1007,3 hPa 0,0 l/m² 7,2 km/h (2 Bft) S-SW 19,9 °C 25,5 °C
01.09.2015 12:00 25,7 °C 26,5 °C 65 % 67 % 1006,8 hPa 0,0 l/m² 4,7 km/h (1 Bft) S 19,8 °C 26,3 °C
01.09.2015 13:00 25,6 °C 26,8 °C 65 % 67 % 1006,5 hPa 0,0 l/m² 6,0 km/h (2 Bft) S-SW 20,1 °C 26,6 °C
01.09.2015 14:00 25,6 °C 27,9 °C 65 % 63 % 1006,1 hPa 0,0 l/m² 4,6 km/h (1 Bft) SW 20,3 °C 27,8 °C
01.09.2015 15:00 25,6 °C 27,6 °C 65 % 63 % 1006,0 hPa 0,0 l/m² 8,5 km/h (2 Bft) W-SW 19,9 °C 27,1 °C
01.09.2015 16:00 25,4 °C 22,3 °C 64 % 70 % 1007,2 hPa 0,0 l/m² 17,9 km/h (3 Bft) W-NW 16,5 °C 19,6 °C
01.09.2015 17:00 25,3 °C 18,4 °C 63 % 80 % 1008,2 hPa 0,0 l/m² 17,7 km/h (3 Bft) NW 14,9 °C 14,9 °C
01.09.2015 18:00 25,3 °C 17,6 °C 63 % 86 % 1009,5 hPa 1,0 l/m² 11,6 km/h (2 Bft) NW 15,2 °C 15,6 °C
01.09.2015 19:00 25,4 °C 17,1 °C 63 % 87 % 1010,6 hPa 0,0 l/m² 10,4 km/h (2 Bft) W 14,9 °C 15,3 °C
01.09.2015 20:00 25,3 °C 16,9 °C 63 % 88 % 1011,5 hPa 0,0 l/m² 5,8 km/h (2 Bft) W 14,9 °C 16,5 °C
01.09.2015 21:00 25,4 °C 16,5 °C 64 % 86 % 1012,5 hPa 0,0 l/m² 10,9 km/h (2 Bft) W 14,1 °C 14,5 °C
01.09.2015 22:00 25,5 °C 15,9 °C 63 % 85 % 1012,9 hPa 0,0 l/m² 7,6 km/h (2 Bft) W 13,4 °C 14,9 °C
01.09.2015 23:00 25,3 °C 15,2 °C 63 % 87 % 1013,5 hPa 0,0 l/m² 8,1 km/h (2 Bft) W 13,0 °C 14,1 °C
02.09.2015 00:00 25,1 °C 14,2 °C 63 % 87 % 1014,1 hPa 0,0 l/m² 2,8 km/h (1 Bft) W-SW 12,0 °C 14,2 °C
02.09.2015 01:00 25,0 °C 13,3 °C 63 % 88 % 1014,6 hPa 0,0 l/m² 3,0 km/h (1 Bft) W-SW 11,4 °C 13,3 °C
02.09.2015 02:00 24,9 °C 12,9 °C 62 % 90 % 1014,8 hPa 0,0 l/m² 3,0 km/h (1 Bft) W 11,2 °C 12,9 °C
02.09.2015 03:00 24,8 °C 12,4 °C 62 % 90 % 1015,0 hPa 0,0 l/m² 0,3 km/h (0 Bft) W 10,8 °C 12,4 °C
02.09.2015 04:00 24,7 °C 11,9 °C 61 % 91 % 1015,2 hPa 0,0 l/m² 0,1 km/h (0 Bft) W 10,5 °C 11,9 °C
02.09.2015 05:00 24,6 °C 11,9 °C 61 % 92 % 1015,4 hPa 0,0 l/m² 2,8 km/h (1 Bft) SW 10,6 °C 11,8 °C
02.09.2015 06:00 24,5 °C 11,4 °C 61 % 92 % 1015,7 hPa 0,0 l/m² 0,7 km/h (0 Bft) SW 10,1 °C 11,4 °C
02.09.2015 07:00 24,3 °C 11,3 °C 56 % 92 % 1015,9 hPa 0,0 l/m² 0,3 km/h (0 Bft) SW 10,1 °C 11,3 °C
02.09.2015 08:00 24,1 °C 14,1 °C 57 % 91 % 1016,2 hPa 0,0 l/m² 10,4 km/h (2 Bft) S-SW 12,6 °C 12,0 °C
02.09.2015 09:00 24,1 °C 16,0 °C 58 % 83 % 1016,4 hPa 0,0 l/m² 15,1 km/h (3 Bft) SW 13,1 °C 12,4 °C
02.09.2015 10:00 24,1 °C 17,1 °C 59 % 75 % 1016,5 hPa 0,0 l/m² 14,5 km/h (3 Bft) SW 12,7 °C 14,1 °C
02.09.2015 11:00 24,0 °C 18,1 °C 59 % 71 % 1016,4 hPa 0,0 l/m² 12,7 km/h (3 Bft) SW 12,7 °C 15,8 °C
02.09.2015 12:00 24,0 °C 19,1 °C 60 % 65 % 1016,0 hPa 0,0 l/m² 12,3 km/h (2 Bft) SW 12,3 °C 17,1 °C
02.09.2015 13:00 24,0 °C 19,7 °C 60 % 61 % 1015,5 hPa 0,0 l/m² 8,9 km/h (2 Bft) SW 11,8 °C 18,5 °C
02.09.2015 14:00 24,1 °C 20,6 °C 60 % 57 % 1015,2 hPa 0,0 l/m² 16,0 km/h (3 Bft) W-SW 11,7 °C 17,9 °C
02.09.2015 15:00 24,1 °C 21,3 °C 60 % 51 % 1014,9 hPa 0,0 l/m² 13,3 km/h (3 Bft) W-SW 10,7 °C 19,3 °C
02.09.2015 16:00 24,1 °C 21,6 °C 60 % 51 % 1014,6 hPa 0,0 l/m² 12,5 km/h (2 Bft) W-SW 10,9 °C 19,9 °C
02.09.2015 17:00 24,2 °C 21,4 °C 61 % 51 % 1014,4 hPa 0,0 l/m² 12,0 km/h (2 Bft) W-SW 10,8 °C 19,7 °C
02.09.2015 18:00 24,1 °C 21,4 °C 61 % 51 % 1014,4 hPa 0,0 l/m² 7,8 km/h (2 Bft) W-SW 10,8 °C 20,9 °C
02.09.2015 19:00 24,1 °C 19,4 °C 61 % 56 % 1014,6 hPa 0,0 l/m² 1,9 km/h (1 Bft) W-SW 10,3 °C 19,4 °C
02.09.2015 20:00 24,1 °C 16,3 °C 61 % 66 % 1014,8 hPa 0,0 l/m² 0,9 km/h (0 Bft) W-SW 9,8 °C 16,3 °C
02.09.2015 21:00 24,0 °C 13,9 °C 60 % 72 % 1014,9 hPa 0,0 l/m² 0,0 km/h (0 Bft) W-NW 8,9 °C 13,9 °C
02.09.2015 22:00 24,0 °C 12,4 °C 60 % 77 % 1014,7 hPa 0,0 l/m² 0,4 km/h (0 Bft) N-NW 8,5 °C 12,4 °C
02.09.2015 23:00 24,0 °C 11,2 °C 61 % 81 % 1014,5 hPa 0,0 l/m² 0,2 km/h (0 Bft) N-NW 8,0 °C 11,2 °C
03.09.2015 00:00 23,9 °C 10,9 °C 60 % 83 % 1014,5 hPa 0,0 l/m² 0,3 km/h (0 Bft) N-NW 8,2 °C 10,9 °C
03.09.2015 01:00 23,8 °C 10,9 °C 60 % 86 % 1014,3 hPa 0,0 l/m² 0,2 km/h (0 Bft) N-NW 8,6 °C 10,9 °C
03.09.2015 02:00 23,8 °C 10,3 °C 60 % 86 % 1014,2 hPa 0,0 l/m² 0,0 km/h (0 Bft) N-NW 8,1 °C 10,3 °C
03.09.2015 03:00 23,7 °C 9,9 °C 60 % 87 % 1013,9 hPa 0,0 l/m² 0,0 km/h (0 Bft) N-NW 7,9 °C 9,9 °C
03.09.2015 04:00 23,6 °C 10,5 °C 60 % 89 % 1013,5 hPa 0,0 l/m² 0,3 km/h (0 Bft) N-NW 8,7 °C 10,5 °C
03.09.2015 05:00 23,5 °C 11,1 °C 59 % 89 % 1013,1 hPa 0,0 l/m² 0,8 km/h (0 Bft) N-NW 9,4 °C 11,1 °C
03.09.2015 06:00 23,4 °C 11,6 °C 59 % 90 % 1013,3 hPa 0,0 l/m² 3,7 km/h (1 Bft) N-NW 10,0 °C 11,4 °C
03.09.2015 07:00 23,4 °C 12,3 °C 59 % 90 % 1013,3 hPa 0,0 l/m² 2,7 km/h (1 Bft) N-NW 10,7 °C 12,3 °C
03.09.2015 08:00 23,4 °C 13,1 °C 60 % 90 % 1013,7 hPa 0,5 l/m² 6,7 km/h (2 Bft) W 11,4 °C 12,1 °C
03.09.2015 09:00 23,3 °C 13,8 °C 60 % 89 % 1013,8 hPa 0,0 l/m² 2,1 km/h (1 Bft) NO 12,1 °C 13,7 °C
03.09.2015 10:00 23,2 °C 14,4 °C 60 % 88 % 1013,7 hPa 0,0 l/m² 4,8 km/h (1 Bft) O-NO 12,5 °C 14,3 °C
03.09.2015 11:00 23,2 °C 14,9 °C 60 % 87 % 1013,6 hPa 0,0 l/m² 3,6 km/h (1 Bft) O-NO 12,7 °C 14,8 °C
03.09.2015 12:00 23,2 °C 15,9 °C 60 % 86 % 1013,5 hPa 0,0 l/m² 4,5 km/h (1 Bft) SO 13,5 °C 15,8 °C
03.09.2015 13:00 23,2 °C 17,4 °C 60 % 82 % 1013,3 hPa 0,0 l/m² 4,8 km/h (1 Bft) SO 14,2 °C 17,2 °C
03.09.2015 14:00 23,2 °C 18,4 °C 59 % 77 % 1012,9 hPa 0,0 l/m² 4,0 km/h (1 Bft) S 14,3 °C 18,2 °C
03.09.2015 15:00 23,1 °C 18,3 °C 59 % 76 % 1012,5 hPa 0,0 l/m² 7,2 km/h (2 Bft) SO 13,9 °C 17,7 °C
03.09.2015 16:00 23,0 °C 17,9 °C 58 % 76 % 1012,4 hPa 0,0 l/m² 9,0 km/h (2 Bft) SO 13,6 °C 16,7 °C
03.09.2015 17:00 23,0 °C 17,9 °C 58 % 78 % 1012,2 hPa 0,0 l/m² 8,4 km/h (2 Bft) SO 14,0 °C 16,8 °C
03.09.2015 18:00 23,0 °C 18,0 °C 58 % 78 % 1012,1 hPa 0,0 l/m² 6,4 km/h (2 Bft) O-SO 14,1 °C 17,7 °C
03.09.2015 19:00 22,9 °C 16,6 °C 57 % 79 % 1012,3 hPa 0,0 l/m² 2,9 km/h (1 Bft) O-SO 12,9 °C 16,6 °C
03.09.2015 20:00 22,9 °C 15,5 °C 57 % 81 % 1012,9 hPa 0,0 l/m² 3,3 km/h (1 Bft) W-SW 12,3 °C 15,5 °C
03.09.2015 21:00 22,8 °C 14,8 °C 57 % 83 % 1013,2 hPa 0,0 l/m² 0,3 km/h (0 Bft) O 11,9 °C 14,8 °C
03.09.2015 22:00 22,8 °C 13,6 °C 58 % 85 % 1013,3 hPa 0,0 l/m² 0,2 km/h (0 Bft) O 11,2 °C 13,6 °C
03.09.2015 23:00 22,8 °C 12,1 °C 58 % 88 % 1013,2 hPa 0,0 l/m² 0,5 km/h (0 Bft) N-NO 10,1 °C 12,1 °C
04.09.2015 00:00 22,8 °C 11,6 °C 58 % 90 % 1013,4 hPa 0,0 l/m² 0,9 km/h (0 Bft) W 10,0 °C 11,6 °C
04.09.2015 01:00 22,7 °C 10,7 °C 59 % 91 % 1013,3 hPa 0,0 l/m² 0,1 km/h (0 Bft) W 9,3 °C 10,7 °C
04.09.2015 02:00 22,7 °C 9,8 °C 59 % 92 % 1013,1 hPa 0,0 l/m² 0,4 km/h (0 Bft) W 8,5 °C 9,8 °C
04.09.2015 03:00 22,6 °C 9,1 °C 59 % 92 % 1013,1 hPa 0,0 l/m² 0,0 km/h (0 Bft) W 7,8 °C 9,1 °C
04.09.2015 04:00 22,6 °C 8,4 °C 59 % 92 % 1013,0 hPa 0,0 l/m² 0,1 km/h (0 Bft) W 7,2 °C 8,4 °C
04.09.2015 05:00 22,5 °C 7,8 °C 59 % 92 % 1012,8 hPa 0,0 l/m² 0,0 km/h (0 Bft) W 6,7 °C 7,8 °C
04.09.2015 06:00 22,4 °C 7,7 °C 59 % 93 % 1012,8 hPa 0,0 l/m² 0,3 km/h (0 Bft) W 6,6 °C 7,7 °C
04.09.2015 07:00 22,4 °C 8,1 °C 58 % 93 % 1013,2 hPa 0,0 l/m² 0,3 km/h (0 Bft) W-SW 7,0 °C 8,1 °C
04.09.2015 08:00 22,3 °C 10,7 °C 58 % 93 % 1013,6 hPa 0,0 l/m² 2,6 km/h (1 Bft) S 9,7 °C 10,7 °C
04.09.2015 09:00 22,3 °C 13,2 °C 58 % 93 % 1013,9 hPa 0,0 l/m² 2,5 km/h (1 Bft) S 12,0 °C 13,2 °C
04.09.2015 10:00 22,3 °C 14,9 °C 58 % 89 % 1014,2 hPa 0,0 l/m² 6,8 km/h (2 Bft) S-SW 13,1 °C 14,4 °C
04.09.2015 11:00 22,3 °C 16,7 °C 58 % 78 % 1014,1 hPa 0,0 l/m² 11,6 km/h (2 Bft) S-SW 12,9 °C 14,5 °C
04.09.2015 12:00 22,3 °C 17,9 °C 58 % 69 % 1013,8 hPa 0,0 l/m² 11,3 km/h (2 Bft) SW 12,2 °C 16,0 °C
04.09.2015 13:00 22,3 °C 18,0 °C 58 % 65 % 1013,6 hPa 0,0 l/m² 14,7 km/h (3 Bft) SW 11,2 °C 15,0 °C
04.09.2015 14:00 22,3 °C 18,9 °C 58 % 60 % 1013,3 hPa 0,0 l/m² 15,2 km/h (3 Bft) W-SW 10,9 °C 15,9 °C
04.09.2015 15:00 22,3 °C 18,0 °C 58 % 58 % 1013,0 hPa 0,0 l/m² 17,3 km/h (3 Bft) S-SW 9,7 °C 14,3 °C
04.09.2015 16:00 22,3 °C 18,2 °C 58 % 56 % 1012,4 hPa 0,0 l/m² 18,4 km/h (3 Bft) S-SW 9,2 °C 14,5 °C
04.09.2015 17:00 22,3 °C 18,4 °C 58 % 54 % 1012,3 hPa 0,0 l/m² 21,3 km/h (4 Bft) SW 8,8 °C 14,0 °C
04.09.2015 18:00 22,2 °C 18,0 °C 58 % 53 % 1012,2 hPa 0,0 l/m² 15,5 km/h (3 Bft) W-SW 8,2 °C 14,9 °C
04.09.2015 19:00 22,2 °C 16,4 °C 58 % 58 % 1012,3 hPa 0,0 l/m² 8,9 km/h (2 Bft) W-SW 8,1 °C 15,2 °C
04.09.2015 20:00 22,2 °C 13,5 °C 58 % 67 % 1012,5 hPa 0,0 l/m² 1,3 km/h (1 Bft) S 7,5 °C 13,5 °C
04.09.2015 21:00 22,2 °C 11,9 °C 58 % 73 % 1012,6 hPa 0,0 l/m² 7,2 km/h (2 Bft) S-SW 7,1 °C 10,9 °C
04.09.2015 22:00 22,1 °C 11,6 °C 58 % 75 % 1012,4 hPa 0,0 l/m² 5,1 km/h (1 Bft) S-SW 7,4 °C 11,4 °C
04.09.2015 23:00 22,0 °C 11,5 °C 58 % 76 % 1012,2 hPa 0,0 l/m² 3,3 km/h (1 Bft) SW 7,4 °C 11,5 °C
05.09.2015 00:00 22,0 °C 10,7 °C 58 % 78 % 1012,2 hPa 0,0 l/m² 3,0 km/h (1 Bft) SW 7,0 °C 10,5 °C
05.09.2015 01:00 22,0 °C 10,0 °C 58 % 80 % 1011,7 hPa 0,0 l/m² 3,5 km/h (1 Bft) S 6,6 °C 9,9 °C
05.09.2015 02:00 21,9 °C 9,9 °C 58 % 82 % 1011,2 hPa 0,0 l/m² 6,8 km/h (2 Bft) S-SO 6,9 °C 9,0 °C
05.09.2015 03:00 21,8 °C 10,4 °C 58 % 81 % 1010,8 hPa 0,0 l/m² 15,2 km/h (3 Bft) S-SW 7,3 °C 6,0 °C
05.09.2015 04:00 21,8 °C 11,8 °C 58 % 79 % 1010,2 hPa 0,0 l/m² 20,3 km/h (4 Bft) S-SW 8,4 °C 5,7 °C
05.09.2015 05:00 21,8 °C 12,4 °C 58 % 80 % 1010,2 hPa 0,0 l/m² 21,2 km/h (4 Bft) S-SW 9,0 °C 6,2 °C
05.09.2015 06:00 21,7 °C 12,4 °C 58 % 81 % 1010,4 hPa 0,0 l/m² 20,3 km/h (4 Bft) S-SW 9,2 °C 6,5 °C
05.09.2015 07:00 21,6 °C 12,6 °C 58 % 82 % 1011,0 hPa 0,0 l/m² 19,1 km/h (3 Bft) SW 9,6 °C 7,1 °C
05.09.2015 08:00 21,6 °C 14,0 °C 58 % 81 % 1011,3 hPa 0,0 l/m² 23,9 km/h (4 Bft) S-SW 10,7 °C 7,7 °C
05.09.2015 09:00 21,7 °C 15,3 °C 58 % 77 % 1011,5 hPa 0,0 l/m² 24,7 km/h (4 Bft) SW 11,3 °C 9,2 °C
05.09.2015 10:00 21,8 °C 16,4 °C 58 % 72 % 1011,5 hPa 0,0 l/m² 22,5 km/h (4 Bft) SW 11,3 °C 11,3 °C
05.09.2015 11:00 21,9 °C 17,2 °C 58 % 69 % 1011,5 hPa 0,0 l/m² 23,1 km/h (4 Bft) W-SW 11,4 °C 12,1 °C
05.09.2015 12:00 21,9 °C 17,8 °C 58 % 66 % 1011,4 hPa 0,0 l/m² 24,2 km/h (4 Bft) SW 11,5 °C 12,7 °C
05.09.2015 13:00 22,1 °C 18,6 °C 58 % 64 % 1011,2 hPa 0,0 l/m² 28,0 km/h (5 Bft) W-SW 11,6 °C 13,1 °C
05.09.2015 14:00 22,3 °C 19,3 °C 57 % 61 % 1010,7 hPa 0,0 l/m² 28,4 km/h (5 Bft) SW 11,6 °C 14,0 °C
05.09.2015 15:00 22,3 °C 19,0 °C 57 % 57 % 1010,3 hPa 0,0 l/m² 25,7 km/h (4 Bft) SW 10,2 °C 14,1 °C
05.09.2015 16:00 22,2 °C 17,9 °C 57 % 60 % 1010,7 hPa 0,0 l/m² 28,9 km/h (5 Bft) W-SW 10,1 °C 12,0 °C
05.09.2015 17:00 22,1 °C 17,2 °C 57 % 66 % 1010,8 hPa 0,0 l/m² 24,6 km/h (4 Bft) SW 10,8 °C 11,7 °C
05.09.2015 18:00 22,0 °C 15,3 °C 58 % 70 % 1011,3 hPa 0,0 l/m² 20,1 km/h (4 Bft) W 9,8 °C 10,3 °C
05.09.2015 19:00 21,9 °C 13,1 °C 58 % 84 % 1011,6 hPa 0,5 l/m² 14,2 km/h (3 Bft) W-SW 10,4 °C 9,4 °C
05.09.2015 20:00 21,8 °C 13,3 °C 58 % 84 % 1011,7 hPa 0,0 l/m² 13,3 km/h (3 Bft) SW 10,6 °C 9,9 °C
05.09.2015 21:00 21,8 °C 12,9 °C 58 % 81 % 1012,2 hPa 0,0 l/m² 16,8 km/h (3 Bft) W-SW 9,6 °C 8,2 °C
05.09.2015 22:00 21,7 °C 12,6 °C 58 % 82 % 1012,3 hPa 0,0 l/m² 18,9 km/h (3 Bft) W-SW 9,5 °C 7,1 °C
05.09.2015 23:00 21,6 °C 11,6 °C 58 % 83 % 1012,5 hPa 0,0 l/m² 14,9 km/h (3 Bft) SW 8,7 °C 7,2 °C
06.09.2015 00:00 21,6 °C 10,8 °C 58 % 84 % 1012,6 hPa 0,0 l/m² 17,8 km/h (3 Bft) SW 8,2 °C 5,2 °C
06.09.2015 01:00 21,5 °C 10,7 °C 58 % 85 % 1012,7 hPa 0,0 l/m² 18,7 km/h (3 Bft) SW 8,2 °C 4,8 °C
06.09.2015 02:00 21,5 °C 10,7 °C 58 % 84 % 1012,4 hPa 0,0 l/m² 15,9 km/h (3 Bft) SW 8,1 °C 5,8 °C
06.09.2015 03:00 21,4 °C 10,4 °C 58 % 85 % 1012,4 hPa 0,0 l/m² 19,1 km/h (3 Bft) SW 7,9 °C 4,4 °C
06.09.2015 04:00 21,4 °C 10,2 °C 58 % 85 % 1012,4 hPa 0,0 l/m² 21,0 km/h (4 Bft) SW 7,9 °C 3,5 °C
06.09.2015 05:00 21,3 °C 10,4 °C 58 % 85 % 1012,4 hPa 0,0 l/m² 22,7 km/h (4 Bft) W-SW 8,0 °C 3,1 °C
06.09.2015 06:00 21,2 °C 10,7 °C 58 % 85 % 1012,5 hPa 0,0 l/m² 19,6 km/h (3 Bft) SW 8,3 °C 4,5 °C
06.09.2015 07:00 21,1 °C 11,1 °C 58 % 84 % 1013,0 hPa 0,0 l/m² 21,3 km/h (4 Bft) SW 8,5 °C 4,5 °C
06.09.2015 08:00 21,1 °C 11,6 °C 58 % 84 % 1013,2 hPa 0,0 l/m² 25,9 km/h (4 Bft) SW 8,9 °C 4,0 °C
06.09.2015 09:00 21,1 °C 11,4 °C 58 % 87 % 1013,7 hPa 0,5 l/m² 28,1 km/h (5 Bft) SW 9,3 °C 3,1 °C
06.09.2015 10:00 21,0 °C 11,5 °C 58 % 89 % 1014,3 hPa 1,0 l/m² 24,6 km/h (4 Bft) SW 9,7 °C 4,1 °C
06.09.2015 11:00 21,0 °C 12,2 °C 58 % 88 % 1014,6 hPa 0,5 l/m² 23,3 km/h (4 Bft) W-SW 10,3 °C 5,4 °C
06.09.2015 12:00 21,0 °C 13,8 °C 58 % 81 % 1015,1 hPa 0,0 l/m² 28,4 km/h (5 Bft) W-SW 10,7 °C 6,4 °C
06.09.2015 13:00 21,0 °C 15,0 °C 58 % 78 % 1015,5 hPa 0,0 l/m² 29,1 km/h (5 Bft) W-SW 11,2 °C 8,0 °C
06.09.2015 14:00 21,2 °C 15,9 °C 58 % 73 % 1015,9 hPa 0,0 l/m² 29,4 km/h (5 Bft) W-SW 11,0 °C 9,1 °C
06.09.2015 15:00 21,1 °C 14,8 °C 58 % 78 % 1016,5 hPa 0,5 l/m² 26,5 km/h (4 Bft) W-SW 11,1 °C 8,2 °C
06.09.2015 16:00 21,0 °C 14,3 °C 58 % 83 % 1017,0 hPa 0,5 l/m² 22,5 km/h (4 Bft) SW 11,5 °C 8,4 °C
06.09.2015 17:00 21,0 °C 14,0 °C 58 % 87 % 1017,6 hPa 1,6 l/m² 19,2 km/h (3 Bft) W 11,9 °C 8,8 °C
06.09.2015 18:00 21,0 °C 15,0 °C 58 % 80 % 1017,9 hPa 0,0 l/m² 25,1 km/h (4 Bft) W-SW 11,5 °C 8,7 °C
06.09.2015 19:00 20,9 °C 14,2 °C 58 % 77 % 1018,4 hPa 0,0 l/m² 23,3 km/h (4 Bft) W 10,1 °C 8,0 °C
06.09.2015 20:00 20,9 °C 13,4 °C 58 % 81 % 1019,1 hPa 0,0 l/m² 19,8 km/h (3 Bft) W 10,2 °C 8,1 °C
06.09.2015 21:00 20,8 °C 12,8 °C 58 % 83 % 1019,8 hPa 0,0 l/m² 19,4 km/h (3 Bft) W 10,0 °C 7,3 °C
06.09.2015 22:00 20,7 °C 12,3 °C 58 % 81 % 1020,0 hPa 0,0 l/m² 20,0 km/h (4 Bft) W 9,1 °C 6,4 °C
06.09.2015 23:00 20,7 °C 11,8 °C 58 % 80 % 1020,3 hPa 0,0 l/m² 14,1 km/h (3 Bft) W-SW 8,5 °C 7,8 °C
Min-Datum _ 06.09.15 04.09.15 02.09.15 02.09.15 01.09.15 - 05.09.15 - 04.09.15 06.09.15
_ Min-Zeit 23:48 06:44 07:26 18:00 15:12 - 01:02 - 06:46 08:48
Minimum _ 20,6 °C 7,4 °C 54 % 48 % 1005,8 hPa - 0,0 km/h (0 Bft) - 6,2 °C 1,0 °C
Max-Datum _ 31.08.15 31.08.15 31.08.15 04.09.15 06.09.15 06.09.15 06.09.15 - 31.08.15 31.08.15
_ Max-Zeit 23:00 17:00 23:00 09:00 23:40 17:00 08:48 - 13:20 17:00
Maximum _ 25,8 °C 33,4 °C 69 % 94 % 1020,5 hPa 1,6 l/m² 45,7 km/h
SW (6 Bft)
- 23,6 °C 33,4 °C
Durchschnitt _ 23,3 °C 16,5 °C 61 % 79 % 1012,5 hPa #7,3 l/m² 9,4 km/h (2 Bft) W-SW 12,5 °C 14,5 °C
© 2009 Mathias Hoßbach